sensor_id;sensor_type;location;lat;lon;timestamp;temperature;humidity
43524;DHT22;29120;52.006;6.020;2023-05-16T00:01:08;11.30;94.70
43524;DHT22;29120;52.006;6.020;2023-05-16T00:03:34;11.20;94.80
43524;DHT22;29120;52.006;6.020;2023-05-16T00:06:01;11.20;94.80
43524;DHT22;29120;52.006;6.020;2023-05-16T00:08:27;11.20;94.80
43524;DHT22;29120;52.006;6.020;2023-05-16T00:10:52;11.10;94.80
43524;DHT22;29120;52.006;6.020;2023-05-16T00:13:18;11.10;94.70
43524;DHT22;29120;52.006;6.020;2023-05-16T00:15:52;11.10;94.70
43524;DHT22;29120;52.006;6.020;2023-05-16T00:18:19;11.10;94.70
43524;DHT22;29120;52.006;6.020;2023-05-16T00:20:46;11.10;94.70
43524;DHT22;29120;52.006;6.020;2023-05-16T00:23:12;11.10;94.70
43524;DHT22;29120;52.006;6.020;2023-05-16T00:25:38;11.10;94.70
43524;DHT22;29120;52.006;6.020;2023-05-16T00:28:03;11.10;94.70
43524;DHT22;29120;52.006;6.020;2023-05-16T00:30:29;11.10;94.70
43524;DHT22;29120;52.006;6.020;2023-05-16T00:32:55;11.10;94.70
43524;DHT22;29120;52.006;6.020;2023-05-16T00:35:20;11.10;94.60
43524;DHT22;29120;52.006;6.020;2023-05-16T00:37:46;11.00;94.50
43524;DHT22;29120;52.006;6.020;2023-05-16T00:40:11;10.90;94.50
43524;DHT22;29120;52.006;6.020;2023-05-16T00:42:37;10.90;94.50
43524;DHT22;29120;52.006;6.020;2023-05-16T00:45:03;10.90;94.50
43524;DHT22;29120;52.006;6.020;2023-05-16T00:47:29;10.80;94.40
43524;DHT22;29120;52.006;6.020;2023-05-16T00:49:54;10.70;94.50
43524;DHT22;29120;52.006;6.020;2023-05-16T00:52:20;10.70;94.60
43524;DHT22;29120;52.006;6.020;2023-05-16T00:54:45;10.60;94.60
43524;DHT22;29120;52.006;6.020;2023-05-16T00:57:11;10.50;94.70
43524;DHT22;29120;52.006;6.020;2023-05-16T00:59:36;10.40;94.70
43524;DHT22;29120;52.006;6.020;2023-05-16T01:02:02;10.40;94.80
43524;DHT22;29120;52.006;6.020;2023-05-16T01:04:27;10.30;94.80
43524;DHT22;29120;52.006;6.020;2023-05-16T01:06:54;10.30;94.80
43524;DHT22;29120;52.006;6.020;2023-05-16T01:09:19;10.30;94.80
43524;DHT22;29120;52.006;6.020;2023-05-16T01:17:02;10.20;94.90
43524;DHT22;29120;52.006;6.020;2023-05-16T01:22:12;10.10;94.90
43524;DHT22;29120;52.006;6.020;2023-05-16T01:27:25;10.00;94.90
43524;DHT22;29120;52.006;6.020;2023-05-16T01:29:55;9.90;94.90
43524;DHT22;29120;52.006;6.020;2023-05-16T01:32:20;9.90;94.90
43524;DHT22;29120;52.006;6.020;2023-05-16T01:34:47;10.00;94.90
43524;DHT22;29120;52.006;6.020;2023-05-16T01:37:20;9.90;94.90
43524;DHT22;29120;52.006;6.020;2023-05-16T01:40:07;9.90;94.90
43524;DHT22;29120;52.006;6.020;2023-05-16T01:42:36;9.80;94.90
43524;DHT22;29120;52.006;6.020;2023-05-16T01:48:04;9.70;94.90
43524;DHT22;29120;52.006;6.020;2023-05-16T01:50:33;9.70;94.90
43524;DHT22;29120;52.006;6.020;2023-05-16T01:53:05;9.70;94.90
43524;DHT22;29120;52.006;6.020;2023-05-16T01:55:47;9.60;94.90
43524;DHT22;29120;52.006;6.020;2023-05-16T01:58:14;9.60;94.90
43524;DHT22;29120;52.006;6.020;2023-05-16T02:00:40;9.60;94.90
43524;DHT22;29120;52.006;6.020;2023-05-16T02:03:06;9.60;95.00
43524;DHT22;29120;52.006;6.020;2023-05-16T02:05:31;9.50;95.00
43524;DHT22;29120;52.006;6.020;2023-05-16T02:07:58;9.20;95.00
43524;DHT22;29120;52.006;6.020;2023-05-16T02:10:23;9.40;95.00
43524;DHT22;29120;52.006;6.020;2023-05-16T02:12:49;9.50;95.00
43524;DHT22;29120;52.006;6.020;2023-05-16T02:15:15;9.50;95.00
43524;DHT22;29120;52.006;6.020;2023-05-16T02:17:40;9.40;95.10
43524;DHT22;29120;52.006;6.020;2023-05-16T02:20:06;9.40;95.10
43524;DHT22;29120;52.006;6.020;2023-05-16T02:22:34;9.40;95.10
43524;DHT22;29120;52.006;6.020;2023-05-16T02:25:01;9.40;95.00
43524;DHT22;29120;52.006;6.020;2023-05-16T02:27:27;9.40;95.00
43524;DHT22;29120;52.006;6.020;2023-05-16T02:29:53;9.50;95.00
43524;DHT22;29120;52.006;6.020;2023-05-16T02:32:18;9.40;95.00
43524;DHT22;29120;52.006;6.020;2023-05-16T02:34:44;9.40;95.00
43524;DHT22;29120;52.006;6.020;2023-05-16T02:37:09;9.40;95.00
43524;DHT22;29120;52.006;6.020;2023-05-16T02:39:35;9.40;95.00
43524;DHT22;29120;52.006;6.020;2023-05-16T02:42:02;9.40;95.00
43524;DHT22;29120;52.006;6.020;2023-05-16T02:44:28;9.40;95.00
43524;DHT22;29120;52.006;6.020;2023-05-16T02:46:53;9.40;95.00
43524;DHT22;29120;52.006;6.020;2023-05-16T02:49:19;9.30;95.00
43524;DHT22;29120;52.006;6.020;2023-05-16T02:51:45;9.30;95.00
43524;DHT22;29120;52.006;6.020;2023-05-16T02:54:11;9.30;95.00
43524;DHT22;29120;52.006;6.020;2023-05-16T02:56:36;9.30;95.00
43524;DHT22;29120;52.006;6.020;2023-05-16T02:59:02;9.30;95.00
43524;DHT22;29120;52.006;6.020;2023-05-16T03:01:28;9.30;95.00
43524;DHT22;29120;52.006;6.020;2023-05-16T03:03:54;9.20;95.00
43524;DHT22;29120;52.006;6.020;2023-05-16T03:06:19;9.20;95.10
43524;DHT22;29120;52.006;6.020;2023-05-16T03:08:45;9.20;95.10
43524;DHT22;29120;52.006;6.020;2023-05-16T03:11:10;9.20;95.20
43524;DHT22;29120;52.006;6.020;2023-05-16T03:13:36;9.10;95.20
43524;DHT22;29120;52.006;6.020;2023-05-16T03:16:01;9.10;95.30
43524;DHT22;29120;52.006;6.020;2023-05-16T03:18:27;9.10;95.30
43524;DHT22;29120;52.006;6.020;2023-05-16T03:20:52;9.10;95.40
43524;DHT22;29120;52.006;6.020;2023-05-16T03:23:18;9.00;95.40
43524;DHT22;29120;52.006;6.020;2023-05-16T03:25:44;9.00;95.40
43524;DHT22;29120;52.006;6.020;2023-05-16T03:28:10;8.90;95.40
43524;DHT22;29120;52.006;6.020;2023-05-16T03:30:36;8.90;95.40
43524;DHT22;29120;52.006;6.020;2023-05-16T03:33:01;8.90;95.50
43524;DHT22;29120;52.006;6.020;2023-05-16T03:35:28;8.80;95.50
43524;DHT22;29120;52.006;6.020;2023-05-16T03:37:54;8.80;95.60
43524;DHT22;29120;52.006;6.020;2023-05-16T03:40:20;8.80;95.60
43524;DHT22;29120;52.006;6.020;2023-05-16T03:42:45;8.80;95.60
43524;DHT22;29120;52.006;6.020;2023-05-16T03:45:11;8.70;95.60
43524;DHT22;29120;52.006;6.020;2023-05-16T03:47:36;8.70;95.60
43524;DHT22;29120;52.006;6.020;2023-05-16T03:50:02;8.70;95.70
43524;DHT22;29120;52.006;6.020;2023-05-16T03:52:28;8.70;95.70
43524;DHT22;29120;52.006;6.020;2023-05-16T03:54:53;8.80;95.70
43524;DHT22;29120;52.006;6.020;2023-05-16T03:57:18;8.80;95.70
43524;DHT22;29120;52.006;6.020;2023-05-16T03:59:44;8.90;95.70
43524;DHT22;29120;52.006;6.020;2023-05-16T04:02:10;8.90;95.60
43524;DHT22;29120;52.006;6.020;2023-05-16T04:04:35;9.00;95.60
43524;DHT22;29120;52.006;6.020;2023-05-16T04:07:01;9.00;95.60
43524;DHT22;29120;52.006;6.020;2023-05-16T04:09:26;9.10;95.60
43524;DHT22;29120;52.006;6.020;2023-05-16T04:11:52;9.20;95.80
43524;DHT22;29120;52.006;6.020;2023-05-16T04:14:17;9.20;95.40
43524;DHT22;29120;52.006;6.020;2023-05-16T04:16:43;9.30;95.40
43524;DHT22;29120;52.006;6.020;2023-05-16T04:19:08;9.40;95.40
43524;DHT22;29120;52.006;6.020;2023-05-16T04:21:34;9.40;95.40
43524;DHT22;29120;52.006;6.020;2023-05-16T04:24:00;9.50;95.40
43524;DHT22;29120;52.006;6.020;2023-05-16T04:26:26;9.60;95.30
43524;DHT22;29120;52.006;6.020;2023-05-16T04:28:51;9.60;95.30
43524;DHT22;29120;52.006;6.020;2023-05-16T04:31:17;9.70;95.30
43524;DHT22;29120;52.006;6.020;2023-05-16T04:33:43;9.70;95.30
43524;DHT22;29120;52.006;6.020;2023-05-16T04:36:08;9.60;95.30
43524;DHT22;29120;52.006;6.020;2023-05-16T04:38:34;9.60;95.40
43524;DHT22;29120;52.006;6.020;2023-05-16T04:40:59;9.60;95.40
43524;DHT22;29120;52.006;6.020;2023-05-16T04:43:26;9.60;95.40
43524;DHT22;29120;52.006;6.020;2023-05-16T04:45:51;9.70;95.50
43524;DHT22;29120;52.006;6.020;2023-05-16T04:48:18;9.70;95.40
43524;DHT22;29120;52.006;6.020;2023-05-16T04:50:43;9.80;95.30
43524;DHT22;29120;52.006;6.020;2023-05-16T04:53:09;9.90;95.30
43524;DHT22;29120;52.006;6.020;2023-05-16T04:55:34;9.90;95.20
43524;DHT22;29120;52.006;6.020;2023-05-16T04:58:00;10.00;95.10
43524;DHT22;29120;52.006;6.020;2023-05-16T05:00:25;10.10;95.20
43524;DHT22;29120;52.006;6.020;2023-05-16T05:02:51;10.10;95.10
43524;DHT22;29120;52.006;6.020;2023-05-16T05:05:16;10.20;95.10
43524;DHT22;29120;52.006;6.020;2023-05-16T05:07:42;10.20;95.10
43524;DHT22;29120;52.006;6.020;2023-05-16T05:10:07;10.20;95.00
43524;DHT22;29120;52.006;6.020;2023-05-16T05:12:34;10.20;95.10
43524;DHT22;29120;52.006;6.020;2023-05-16T05:14:59;10.20;95.10
43524;DHT22;29120;52.006;6.020;2023-05-16T05:17:25;10.30;95.10
43524;DHT22;29120;52.006;6.020;2023-05-16T05:19:50;10.40;95.10
43524;DHT22;29120;52.006;6.020;2023-05-16T05:22:16;10.50;95.10
43524;DHT22;29120;52.006;6.020;2023-05-16T05:24:41;10.50;95.00
43524;DHT22;29120;52.006;6.020;2023-05-16T05:27:07;10.50;95.10
43524;DHT22;29120;52.006;6.020;2023-05-16T05:29:32;10.70;95.00
43524;DHT22;29120;52.006;6.020;2023-05-16T05:31:58;10.90;94.90
43524;DHT22;29120;52.006;6.020;2023-05-16T05:34:23;11.20;94.70
43524;DHT22;29120;52.006;6.020;2023-05-16T05:36:49;11.30;94.50
43524;DHT22;29120;52.006;6.020;2023-05-16T05:39:14;11.40;94.40
43524;DHT22;29120;52.006;6.020;2023-05-16T05:41:40;11.40;94.40
43524;DHT22;29120;52.006;6.020;2023-05-16T05:44:05;11.50;94.40
43524;DHT22;29120;52.006;6.020;2023-05-16T05:46:31;11.50;94.50
43524;DHT22;29120;52.006;6.020;2023-05-16T05:48:56;11.60;94.50
43524;DHT22;29120;52.006;6.020;2023-05-16T05:51:22;11.70;94.40
43524;DHT22;29120;52.006;6.020;2023-05-16T05:53:48;11.80;94.40
43524;DHT22;29120;52.006;6.020;2023-05-16T05:56:14;11.70;94.30
43524;DHT22;29120;52.006;6.020;2023-05-16T05:58:39;11.80;94.40
43524;DHT22;29120;52.006;6.020;2023-05-16T06:01:06;11.80;94.40
43524;DHT22;29120;52.006;6.020;2023-05-16T06:03:32;11.80;94.40
43524;DHT22;29120;52.006;6.020;2023-05-16T06:05:57;11.80;94.40
43524;DHT22;29120;52.006;6.020;2023-05-16T06:08:23;11.70;94.40
43524;DHT22;29120;52.006;6.020;2023-05-16T06:10:49;11.60;94.30
43524;DHT22;29120;52.006;6.020;2023-05-16T06:13:14;11.60;94.30
43524;DHT22;29120;52.006;6.020;2023-05-16T06:15:39;11.70;94.40
43524;DHT22;29120;52.006;6.020;2023-05-16T06:18:05;11.70;94.60
43524;DHT22;29120;52.006;6.020;2023-05-16T06:20:30;11.80;94.20
43524;DHT22;29120;52.006;6.020;2023-05-16T06:22:56;12.00;94.10
43524;DHT22;29120;52.006;6.020;2023-05-16T06:25:22;12.10;93.90
43524;DHT22;29120;52.006;6.020;2023-05-16T06:27:47;12.40;93.70
43524;DHT22;29120;52.006;6.020;2023-05-16T06:30:13;12.70;93.50
43524;DHT22;29120;52.006;6.020;2023-05-16T06:32:38;12.80;93.10
43524;DHT22;29120;52.006;6.020;2023-05-16T06:35:05;12.90;93.00
43524;DHT22;29120;52.006;6.020;2023-05-16T06:37:31;12.90;92.90
43524;DHT22;29120;52.006;6.020;2023-05-16T06:39:56;12.80;93.00
43524;DHT22;29120;52.006;6.020;2023-05-16T06:42:23;12.70;93.10
43524;DHT22;29120;52.006;6.020;2023-05-16T06:44:48;12.50;93.20
43524;DHT22;29120;52.006;6.020;2023-05-16T06:47:14;12.40;93.30
43524;DHT22;29120;52.006;6.020;2023-05-16T06:49:40;12.20;93.40
43524;DHT22;29120;52.006;6.020;2023-05-16T06:52:05;12.20;93.60
43524;DHT22;29120;52.006;6.020;2023-05-16T06:54:31;12.10;93.60
43524;DHT22;29120;52.006;6.020;2023-05-16T06:56:56;12.10;93.70
43524;DHT22;29120;52.006;6.020;2023-05-16T06:59:22;12.10;93.80
43524;DHT22;29120;52.006;6.020;2023-05-16T07:01:48;12.10;93.80
43524;DHT22;29120;52.006;6.020;2023-05-16T07:04:13;12.10;93.80
43524;DHT22;29120;52.006;6.020;2023-05-16T07:06:39;12.10;93.80
43524;DHT22;29120;52.006;6.020;2023-05-16T07:09:05;12.40;93.70
43524;DHT22;29120;52.006;6.020;2023-05-16T07:11:31;12.80;93.20
43524;DHT22;29120;52.006;6.020;2023-05-16T07:13:57;13.30;92.80
43524;DHT22;29120;52.006;6.020;2023-05-16T07:16:22;13.90;92.30
43524;DHT22;29120;52.006;6.020;2023-05-16T07:18:48;14.20;91.40
43524;DHT22;29120;52.006;6.020;2023-05-16T07:21:13;14.30;90.80
43524;DHT22;29120;52.006;6.020;2023-05-16T07:23:39;14.30;90.40
43524;DHT22;29120;52.006;6.020;2023-05-16T07:26:04;14.30;90.20
43524;DHT22;29120;52.006;6.020;2023-05-16T07:28:30;14.50;90.20
43524;DHT22;29120;52.006;6.020;2023-05-16T07:30:55;14.80;90.20
43524;DHT22;29120;52.006;6.020;2023-05-16T07:33:23;15.20;90.20
43524;DHT22;29120;52.006;6.020;2023-05-16T07:35:49;15.70;89.70
43524;DHT22;29120;52.006;6.020;2023-05-16T07:38:14;15.70;88.70
43524;DHT22;29120;52.006;6.020;2023-05-16T07:40:40;15.60;88.30
43524;DHT22;29120;52.006;6.020;2023-05-16T07:43:05;15.90;88.40
43524;DHT22;29120;52.006;6.020;2023-05-16T07:45:31;16.00;86.60
43524;DHT22;29120;52.006;6.020;2023-05-16T07:47:56;15.90;87.10
43524;DHT22;29120;52.006;6.020;2023-05-16T07:50:22;15.80;86.80
43524;DHT22;29120;52.006;6.020;2023-05-16T07:52:47;15.50;86.10
43524;DHT22;29120;52.006;6.020;2023-05-16T07:55:13;15.20;86.50
43524;DHT22;29120;52.006;6.020;2023-05-16T07:57:38;14.80;85.80
43524;DHT22;29120;52.006;6.020;2023-05-16T08:00:04;14.70;86.90
43524;DHT22;29120;52.006;6.020;2023-05-16T08:02:30;14.50;86.70
43524;DHT22;29120;52.006;6.020;2023-05-16T08:04:55;14.40;85.80
43524;DHT22;29120;52.006;6.020;2023-05-16T08:07:22;14.40;85.10
43524;DHT22;29120;52.006;6.020;2023-05-16T08:09:48;14.20;85.20
43524;DHT22;29120;52.006;6.020;2023-05-16T08:12:13;14.00;84.70
43524;DHT22;29120;52.006;6.020;2023-05-16T08:14:39;14.10;84.50
43524;DHT22;29120;52.006;6.020;2023-05-16T08:17:04;14.50;83.80
43524;DHT22;29120;52.006;6.020;2023-05-16T08:19:30;15.00;82.80
43524;DHT22;29120;52.006;6.020;2023-05-16T08:21:57;15.40;81.50
43524;DHT22;29120;52.006;6.020;2023-05-16T08:24:22;15.70;78.40
43524;DHT22;29120;52.006;6.020;2023-05-16T08:26:48;15.70;78.70
43524;DHT22;29120;52.006;6.020;2023-05-16T08:29:13;15.60;78.90
43524;DHT22;29120;52.006;6.020;2023-05-16T08:31:39;15.60;79.40
43524;DHT22;29120;52.006;6.020;2023-05-16T08:34:04;15.40;79.10
43524;DHT22;29120;52.006;6.020;2023-05-16T08:36:30;15.10;78.30
43524;DHT22;29120;52.006;6.020;2023-05-16T08:38:59;14.90;79.30
43524;DHT22;29120;52.006;6.020;2023-05-16T08:41:24;14.90;79.80
43524;DHT22;29120;52.006;6.020;2023-05-16T08:43:50;15.30;79.40
43524;DHT22;29120;52.006;6.020;2023-05-16T08:46:17;15.80;77.90
43524;DHT22;29120;52.006;6.020;2023-05-16T08:48:45;16.20;76.00
43524;DHT22;29120;52.006;6.020;2023-05-16T08:51:11;16.60;75.30
43524;DHT22;29120;52.006;6.020;2023-05-16T08:53:41;17.00;74.70
43524;DHT22;29120;52.006;6.020;2023-05-16T08:56:09;17.30;74.70
43524;DHT22;29120;52.006;6.020;2023-05-16T08:58:34;17.60;73.70
43524;DHT22;29120;52.006;6.020;2023-05-16T09:01:01;17.70;74.10
43524;DHT22;29120;52.006;6.020;2023-05-16T09:03:30;18.00;73.00
43524;DHT22;29120;52.006;6.020;2023-05-16T09:05:56;18.20;72.50
43524;DHT22;29120;52.006;6.020;2023-05-16T09:08:22;18.40;71.10
43524;DHT22;29120;52.006;6.020;2023-05-16T09:10:48;18.50;69.60
43524;DHT22;29120;52.006;6.020;2023-05-16T09:13:13;18.50;67.80
43524;DHT22;29120;52.006;6.020;2023-05-16T09:15:39;18.50;68.70
43524;DHT22;29120;52.006;6.020;2023-05-16T09:18:07;18.60;68.20
43524;DHT22;29120;52.006;6.020;2023-05-16T09:20:36;18.60;67.10
43524;DHT22;29120;52.006;6.020;2023-05-16T09:23:07;18.20;65.60
43524;DHT22;29120;52.006;6.020;2023-05-16T09:25:33;17.80;66.50
43524;DHT22;29120;52.006;6.020;2023-05-16T09:27:59;17.20;66.40
43524;DHT22;29120;52.006;6.020;2023-05-16T09:30:29;16.60;68.40
43524;DHT22;29120;52.006;6.020;2023-05-16T09:32:55;16.10;69.00
43524;DHT22;29120;52.006;6.020;2023-05-16T09:35:21;15.60;69.70
43524;DHT22;29120;52.006;6.020;2023-05-16T09:37:47;15.20;70.60
43524;DHT22;29120;52.006;6.020;2023-05-16T09:40:13;15.00;71.90
43524;DHT22;29120;52.006;6.020;2023-05-16T09:42:38;15.10;72.20
43524;DHT22;29120;52.006;6.020;2023-05-16T09:45:04;15.70;72.00
43524;DHT22;29120;52.006;6.020;2023-05-16T09:47:29;16.70;71.50
43524;DHT22;29120;52.006;6.020;2023-05-16T09:49:55;17.60;70.40
43524;DHT22;29120;52.006;6.020;2023-05-16T09:52:21;18.10;68.80
43524;DHT22;29120;52.006;6.020;2023-05-16T09:54:47;18.40;67.90
43524;DHT22;29120;52.006;6.020;2023-05-16T09:57:18;18.50;67.50
43524;DHT22;29120;52.006;6.020;2023-05-16T09:59:44;18.70;67.70
43524;DHT22;29120;52.006;6.020;2023-05-16T10:02:10;18.90;67.50
43524;DHT22;29120;52.006;6.020;2023-05-16T10:04:37;19.00;65.60
43524;DHT22;29120;52.006;6.020;2023-05-16T10:07:03;18.60;64.50
43524;DHT22;29120;52.006;6.020;2023-05-16T10:09:31;18.00;65.40
43524;DHT22;29120;52.006;6.020;2023-05-16T10:11:56;17.20;67.30
43524;DHT22;29120;52.006;6.020;2023-05-16T10:14:22;16.60;69.20
43524;DHT22;29120;52.006;6.020;2023-05-16T10:16:48;16.30;70.90
43524;DHT22;29120;52.006;6.020;2023-05-16T10:19:16;16.40;72.40
43524;DHT22;29120;52.006;6.020;2023-05-16T10:21:42;17.00;73.20
43524;DHT22;29120;52.006;6.020;2023-05-16T10:24:10;17.60;71.90
43524;DHT22;29120;52.006;6.020;2023-05-16T10:26:36;18.20;70.20
43524;DHT22;29120;52.006;6.020;2023-05-16T10:29:02;18.70;69.70
43524;DHT22;29120;52.006;6.020;2023-05-16T10:31:28;19.40;69.20
43524;DHT22;29120;52.006;6.020;2023-05-16T10:33:55;19.90;65.90
43524;DHT22;29120;52.006;6.020;2023-05-16T10:36:20;20.30;64.90
43524;DHT22;29120;52.006;6.020;2023-05-16T10:38:46;20.70;63.90
43524;DHT22;29120;52.006;6.020;2023-05-16T10:41:12;21.20;64.20
43524;DHT22;29120;52.006;6.020;2023-05-16T10:43:37;21.10;62.20
43524;DHT22;29120;52.006;6.020;2023-05-16T10:46:04;20.60;61.60
43524;DHT22;29120;52.006;6.020;2023-05-16T10:48:33;20.00;62.80
43524;DHT22;29120;52.006;6.020;2023-05-16T10:50:58;19.40;63.60
43524;DHT22;29120;52.006;6.020;2023-05-16T10:53:34;18.80;64.00
43524;DHT22;29120;52.006;6.020;2023-05-16T11:06:22;22.90;57.60
43524;DHT22;29120;52.006;6.020;2023-05-16T11:11:42;23.30;57.00
43524;DHT22;29120;52.006;6.020;2023-05-16T11:14:08;23.50;56.70
43524;DHT22;29120;52.006;6.020;2023-05-16T11:16:34;24.20;53.80
43524;DHT22;29120;52.006;6.020;2023-05-16T11:19:03;24.40;52.40
43524;DHT22;29120;52.006;6.020;2023-05-16T11:22:03;24.70;50.60
43524;DHT22;29120;52.006;6.020;2023-05-16T11:24:27;25.20;50.20
43524;DHT22;29120;52.006;6.020;2023-05-16T11:26:53;26.00;49.10
43524;DHT22;29120;52.006;6.020;2023-05-16T11:29:19;25.60;46.50
43524;DHT22;29120;52.006;6.020;2023-05-16T11:31:44;24.90;48.10
43524;DHT22;29120;52.006;6.020;2023-05-16T11:34:10;24.90;48.00
43524;DHT22;29120;52.006;6.020;2023-05-16T11:36:35;25.20;48.60
43524;DHT22;29120;52.006;6.020;2023-05-16T11:39:05;24.60;48.00
43524;DHT22;29120;52.006;6.020;2023-05-16T11:41:31;23.50;48.70
43524;DHT22;29120;52.006;6.020;2023-05-16T11:43:57;22.80;48.90
43524;DHT22;29120;52.006;6.020;2023-05-16T11:46:22;22.90;49.70
43524;DHT22;29120;52.006;6.020;2023-05-16T11:48:47;22.40;49.50
43524;DHT22;29120;52.006;6.020;2023-05-16T11:51:13;21.90;50.10
43524;DHT22;29120;52.006;6.020;2023-05-16T11:53:43;21.40;50.60
43524;DHT22;29120;52.006;6.020;2023-05-16T11:56:09;21.30;50.60
43524;DHT22;29120;52.006;6.020;2023-05-16T11:58:35;21.30;51.30
43524;DHT22;29120;52.006;6.020;2023-05-16T12:01:02;21.40;51.50
43524;DHT22;29120;52.006;6.020;2023-05-16T12:03:32;20.80;51.30
43524;DHT22;29120;52.006;6.020;2023-05-16T12:05:59;20.10;51.90
43524;DHT22;29120;52.006;6.020;2023-05-16T12:08:25;20.20;52.90
43524;DHT22;29120;52.006;6.020;2023-05-16T12:10:51;21.40;52.80
43524;DHT22;29120;52.006;6.020;2023-05-16T12:13:20;21.90;51.90
43524;DHT22;29120;52.006;6.020;2023-05-16T12:15:47;22.00;51.60
43524;DHT22;29120;52.006;6.020;2023-05-16T12:18:12;21.50;50.30
43524;DHT22;29120;52.006;6.020;2023-05-16T12:20:38;20.70;50.70
43524;DHT22;29120;52.006;6.020;2023-05-16T12:23:05;20.00;51.90
43524;DHT22;29120;52.006;6.020;2023-05-16T12:25:34;19.70;52.80
43524;DHT22;29120;52.006;6.020;2023-05-16T12:28:02;19.30;53.30
43524;DHT22;29120;52.006;6.020;2023-05-16T12:30:29;19.00;53.20
43524;DHT22;29120;52.006;6.020;2023-05-16T12:33:02;18.90;53.60
43524;DHT22;29120;52.006;6.020;2023-05-16T12:35:31;19.00;54.00
43524;DHT22;29120;52.006;6.020;2023-05-16T12:37:57;19.20;54.20
43524;DHT22;29120;52.006;6.020;2023-05-16T12:40:23;19.50;54.50
43524;DHT22;29120;52.006;6.020;2023-05-16T12:42:52;19.80;54.20
43524;DHT22;29120;52.006;6.020;2023-05-16T12:45:17;19.80;54.10
43524;DHT22;29120;52.006;6.020;2023-05-16T12:47:43;19.50;54.70
43524;DHT22;29120;52.006;6.020;2023-05-16T12:50:10;19.20;55.00
43524;DHT22;29120;52.006;6.020;2023-05-16T12:52:45;18.70;55.40
43524;DHT22;29120;52.006;6.020;2023-05-16T12:55:11;18.30;56.30
43524;DHT22;29120;52.006;6.020;2023-05-16T12:57:36;18.00;56.60
43524;DHT22;29120;52.006;6.020;2023-05-16T13:00:02;17.70;57.00
43524;DHT22;29120;52.006;6.020;2023-05-16T13:02:28;17.70;57.40
43524;DHT22;29120;52.006;6.020;2023-05-16T13:04:53;17.60;57.50
43524;DHT22;29120;52.006;6.020;2023-05-16T13:07:18;17.70;57.80
43524;DHT22;29120;52.006;6.020;2023-05-16T13:09:44;18.00;58.30
43524;DHT22;29120;52.006;6.020;2023-05-16T13:12:10;18.40;58.30
43524;DHT22;29120;52.006;6.020;2023-05-16T13:14:35;18.80;57.70
43524;DHT22;29120;52.006;6.020;2023-05-16T13:17:01;19.30;57.70
43524;DHT22;29120;52.006;6.020;2023-05-16T13:19:26;19.20;58.10
43524;DHT22;29120;52.006;6.020;2023-05-16T13:21:52;19.40;58.00
43524;DHT22;29120;52.006;6.020;2023-05-16T13:24:17;19.40;57.90
43524;DHT22;29120;52.006;6.020;2023-05-16T13:26:43;19.20;57.90
43524;DHT22;29120;52.006;6.020;2023-05-16T13:29:09;19.00;58.60
43524;DHT22;29120;52.006;6.020;2023-05-16T13:31:35;18.80;59.30
43524;DHT22;29120;52.006;6.020;2023-05-16T13:34:01;18.50;59.80
43524;DHT22;29120;52.006;6.020;2023-05-16T13:36:26;18.10;58.90
43524;DHT22;29120;52.006;6.020;2023-05-16T13:38:52;17.60;59.50
43524;DHT22;29120;52.006;6.020;2023-05-16T13:41:17;17.30;60.30
43524;DHT22;29120;52.006;6.020;2023-05-16T13:43:43;16.90;61.20
43524;DHT22;29120;52.006;6.020;2023-05-16T13:46:08;16.90;62.10
43524;DHT22;29120;52.006;6.020;2023-05-16T13:48:34;16.90;62.00
43524;DHT22;29120;52.006;6.020;2023-05-16T13:50:59;16.90;62.30
43524;DHT22;29120;52.006;6.020;2023-05-16T13:53:25;16.90;62.40
43524;DHT22;29120;52.006;6.020;2023-05-16T13:55:50;17.40;62.50
43524;DHT22;29120;52.006;6.020;2023-05-16T13:58:16;18.40;61.70
43524;DHT22;29120;52.006;6.020;2023-05-16T14:00:41;19.00;60.60
43524;DHT22;29120;52.006;6.020;2023-05-16T14:03:07;19.00;60.10
43524;DHT22;29120;52.006;6.020;2023-05-16T14:05:32;18.90;59.90
43524;DHT22;29120;52.006;6.020;2023-05-16T14:07:58;18.60;60.10
43524;DHT22;29120;52.006;6.020;2023-05-16T14:10:23;18.20;60.20
43524;DHT22;29120;52.006;6.020;2023-05-16T14:12:49;17.70;61.00
43524;DHT22;29120;52.006;6.020;2023-05-16T14:15:14;17.40;61.30
43524;DHT22;29120;52.006;6.020;2023-05-16T14:17:39;17.20;62.00
43524;DHT22;29120;52.006;6.020;2023-05-16T14:20:05;17.00;62.60
43524;DHT22;29120;52.006;6.020;2023-05-16T14:22:33;16.90;62.80
43524;DHT22;29120;52.006;6.020;2023-05-16T14:24:59;16.80;63.20
43524;DHT22;29120;52.006;6.020;2023-05-16T14:27:24;16.90;63.70
43524;DHT22;29120;52.006;6.020;2023-05-16T14:29:50;16.70;63.80
43524;DHT22;29120;52.006;6.020;2023-05-16T14:32:16;16.60;64.00
43524;DHT22;29120;52.006;6.020;2023-05-16T14:34:42;16.60;64.80
43524;DHT22;29120;52.006;6.020;2023-05-16T14:37:07;16.40;65.00
43524;DHT22;29120;52.006;6.020;2023-05-16T14:39:34;16.30;65.30
43524;DHT22;29120;52.006;6.020;2023-05-16T14:42:00;16.30;65.80
43524;DHT22;29120;52.006;6.020;2023-05-16T14:44:25;16.30;66.10
43524;DHT22;29120;52.006;6.020;2023-05-16T14:46:51;16.40;66.30
43524;DHT22;29120;52.006;6.020;2023-05-16T14:49:16;16.60;66.50
43524;DHT22;29120;52.006;6.020;2023-05-16T14:51:42;16.80;66.50
43524;DHT22;29120;52.006;6.020;2023-05-16T14:54:09;17.00;66.60
43524;DHT22;29120;52.006;6.020;2023-05-16T14:56:35;17.10;66.40
43524;DHT22;29120;52.006;6.020;2023-05-16T14:59:00;17.00;66.50
43524;DHT22;29120;52.006;6.020;2023-05-16T15:01:26;17.10;66.70
43524;DHT22;29120;52.006;6.020;2023-05-16T15:03:51;17.20;66.30
43524;DHT22;29120;52.006;6.020;2023-05-16T15:06:17;17.20;66.10
43524;DHT22;29120;52.006;6.020;2023-05-16T15:08:43;17.10;66.00
43524;DHT22;29120;52.006;6.020;2023-05-16T15:11:08;17.00;66.20
43524;DHT22;29120;52.006;6.020;2023-05-16T15:13:34;16.90;66.70
43524;DHT22;29120;52.006;6.020;2023-05-16T15:15:59;16.90;66.90
43524;DHT22;29120;52.006;6.020;2023-05-16T15:18:25;16.90;66.90
43524;DHT22;29120;52.006;6.020;2023-05-16T15:20:50;16.70;66.90
43524;DHT22;29120;52.006;6.020;2023-05-16T15:23:17;16.40;67.20
43524;DHT22;29120;52.006;6.020;2023-05-16T15:25:42;16.30;67.30
43524;DHT22;29120;52.006;6.020;2023-05-16T15:28:08;16.30;67.50
43524;DHT22;29120;52.006;6.020;2023-05-16T15:30:33;16.20;67.60
43524;DHT22;29120;52.006;6.020;2023-05-16T15:32:59;16.10;67.80
43524;DHT22;29120;52.006;6.020;2023-05-16T15:35:24;16.00;67.80
43524;DHT22;29120;52.006;6.020;2023-05-16T15:37:50;15.90;67.90
43524;DHT22;29120;52.006;6.020;2023-05-16T15:40:17;15.80;67.90
43524;DHT22;29120;52.006;6.020;2023-05-16T15:42:42;15.80;67.80
43524;DHT22;29120;52.006;6.020;2023-05-16T15:45:09;15.70;67.90
43524;DHT22;29120;52.006;6.020;2023-05-16T15:47:35;15.70;67.90
43524;DHT22;29120;52.006;6.020;2023-05-16T15:50:01;15.80;67.80
43524;DHT22;29120;52.006;6.020;2023-05-16T15:52:26;15.90;67.90
43524;DHT22;29120;52.006;6.020;2023-05-16T15:54:52;15.80;67.50